createdAt,value
2016-09-16T11:05:45.781Z,28.3
2016-09-16T11:06:02.391Z,28.2
2016-09-16T11:06:18.768Z,28.1
2016-09-16T11:06:35.412Z,28.1
2016-09-16T11:06:52.214Z,28.1
2016-09-16T11:07:08.857Z,28.1
2016-09-16T11:07:25.667Z,28.1
2016-09-16T11:07:42.824Z,28
2016-09-16T11:07:59.630Z,28
2016-09-16T11:08:22.325Z,28
2016-09-16T11:09:36.558Z,27.8
2016-09-16T11:09:59.286Z,27.9
2016-09-16T11:10:17.444Z,27.9
2016-09-16T11:10:34.638Z,27.9
2016-09-16T11:10:52.647Z,28
2016-09-16T11:11:09.137Z,28
2016-09-16T11:11:26.032Z,28.1
2016-09-16T11:11:51.286Z,28.2
2016-09-16T11:12:31.560Z,27.8
2016-09-16T11:12:49.131Z,27.8
2016-09-16T11:13:05.451Z,27.7
2016-09-16T11:13:22.029Z,27.7
2016-09-16T11:13:45.858Z,27.7
2016-09-16T11:18:52.251Z,27.7
2016-09-16T11:19:12.378Z,27.6
2016-09-16T11:20:27.451Z,27.6
2016-09-16T11:20:45.606Z,27.6
2016-09-16T11:21:02.181Z,27.6
2016-09-16T11:21:19.992Z,27.6
2016-09-16T11:21:37.708Z,27.6
2016-09-16T11:22:00.039Z,27.6
2016-09-16T11:22:24.265Z,27.7
2016-09-16T11:23:43.118Z,28
2016-09-16T11:24:00.590Z,28.1
2016-09-16T11:24:17.901Z,28.2
2016-09-16T11:24:34.182Z,28.3
2016-09-16T11:24:53.045Z,28.4
2016-09-16T11:25:10.246Z,28.5
2016-09-16T11:25:27.859Z,28.6
2016-09-16T11:25:44.628Z,28.9
2016-09-16T11:26:01.471Z,29.2
2016-09-16T11:26:17.929Z,29.4
2016-09-16T11:26:44.454Z,29.8
2016-09-16T11:27:01.410Z,29.9
2016-09-16T11:28:04.168Z,30.4
2016-09-16T11:28:22.103Z,30.5
2016-09-16T11:29:03.321Z,30.6
2016-09-16T11:29:26.434Z,30.6
2016-09-16T11:30:27.837Z,30.5
2016-09-16T11:30:45.355Z,30.5
2016-09-16T11:31:02.664Z,30.2
2016-09-16T11:31:20.849Z,30.1
2016-09-16T11:31:40.438Z,30
2016-09-16T11:31:57.472Z,30
2016-09-16T11:32:23.039Z,30
2016-09-16T11:32:39.418Z,30
2016-09-16T11:32:56.078Z,30
2016-09-16T11:33:14.588Z,29.9
2016-09-16T11:33:30.630Z,29.9
2016-09-16T11:33:46.762Z,29.9
2016-09-16T11:34:03.901Z,29.8
2016-09-16T11:34:21.725Z,29.7
2016-09-16T11:34:38.545Z,29.6
2016-09-16T11:34:56.232Z,29.5
2016-09-16T11:35:13.496Z,29.4
2016-09-16T11:35:32.661Z,29.3
2016-09-16T11:35:50.275Z,29.2
2016-09-16T11:36:08.065Z,29.1
2016-09-16T11:36:30.937Z,28.8
2016-09-16T11:37:45.962Z,28.3
2016-09-16T11:38:08.070Z,28.2
2016-09-16T11:38:24.724Z,28.1
2016-09-16T11:38:43.242Z,28
2016-09-16T11:38:59.856Z,28
2016-09-16T11:39:18.359Z,28
2016-09-16T11:39:35.579Z,28
2016-09-16T11:39:52.654Z,28
2016-09-16T11:40:29.595Z,27.9
2016-09-16T11:40:57.144Z,27.9
2016-09-16T11:50:10.772Z,27.6
2016-09-16T11:51:14.116Z,27.9
2016-09-16T11:51:31.493Z,27.9
2016-09-16T11:51:48.639Z,28
2016-09-16T11:52:05.427Z,28
2016-09-16T11:52:26.675Z,28.1
2016-09-16T11:52:43.867Z,28.2
2016-09-16T11:53:00.580Z,28.2
2016-09-16T11:53:17.330Z,28.3
2016-09-16T11:53:33.957Z,28.4
2016-09-16T11:53:50.878Z,28.5
2016-09-16T11:54:07.830Z,28.6
2016-09-16T11:54:24.780Z,28.8
2016-09-16T11:54:41.573Z,28.9
2016-09-16T11:54:58.393Z,29
2016-09-16T11:55:15.650Z,29.2
2016-09-16T11:55:32.093Z,29.4
2016-09-16T11:55:49.014Z,29.5
2016-09-16T11:56:06.027Z,29.5
2016-09-16T11:56:22.968Z,29.5
2016-09-16T11:56:46.827Z,29.4
2016-09-16T11:57:03.709Z,29.5
2016-09-16T11:57:39.951Z,29.5
2016-09-16T11:57:56.845Z,29.6
2016-09-16T11:58:13.375Z,29.6
2016-09-16T11:59:13.027Z,29.7
2016-09-16T11:59:56.564Z,29.6
2016-09-16T12:01:35.314Z,29.5
2016-09-16T12:06:46.570Z,28.8
2016-09-16T12:07:02.948Z,28.5
2016-09-16T12:07:19.088Z,28.3
2016-09-16T12:07:36.033Z,28.1
2016-09-16T12:07:52.397Z,27.8
2016-09-16T12:08:09.570Z,27.7
2016-09-16T12:08:25.926Z,27.6
2016-09-16T12:08:42.351Z,27.5
2016-09-16T12:09:18.258Z,27.3
2016-09-16T12:09:35.156Z,27.2
2016-09-16T12:09:51.748Z,27.2
2016-09-16T12:10:07.767Z,27.1
2016-09-16T12:10:24.180Z,27.1
2016-09-16T12:10:40.776Z,27
2016-09-16T12:10:56.913Z,27
2016-09-16T12:11:13.733Z,27
2016-09-16T12:11:38.931Z,26.8
2016-09-16T12:11:55.544Z,26.9
2016-09-16T12:12:12.728Z,26.9
2016-09-16T12:12:29.335Z,26.9
2016-09-16T12:12:46.115Z,26.9
2016-09-16T12:13:02.700Z,26.9
2016-09-16T12:13:19.584Z,26.9
2016-09-16T12:13:37.755Z,27
2016-09-16T12:13:54.354Z,27
2016-09-16T12:14:17.380Z,27
2016-09-16T12:14:34.013Z,26.9
2016-09-16T12:14:50.642Z,27
2016-09-16T12:15:07.662Z,26.9
2016-09-16T12:15:29.819Z,26.9
2016-09-16T12:15:46.190Z,26.9
2016-09-16T12:16:07.247Z,26.9
2016-09-16T12:16:24.529Z,27
2016-09-16T12:16:50.762Z,27
2016-09-16T12:17:51.845Z,26.9
2016-09-16T12:18:54.127Z,26.8
2016-09-16T12:19:38.963Z,26.7
2016-09-16T12:20:00.015Z,26.8
2016-09-16T12:20:16.754Z,26.7
2016-09-16T12:20:34.235Z,26.8
2016-09-16T12:21:38.362Z,26.8
2016-09-16T12:21:54.741Z,26.8
2016-09-16T12:22:11.273Z,26.8
2016-09-16T12:22:27.430Z,26.7
2016-09-16T12:22:44.697Z,26.8
2016-09-16T12:23:02.089Z,26.7
2016-09-16T12:23:18.464Z,26.7
2016-09-16T12:23:35.796Z,26.7
2016-09-16T12:23:52.030Z,26.7
2016-09-16T12:24:09.217Z,26.6
2016-09-16T12:24:25.791Z,26.6
2016-09-16T12:24:42.412Z,26.6
2016-09-16T12:24:59.141Z,26.6
2016-09-16T12:25:15.765Z,26.7
2016-09-16T12:25:32.244Z,26.7
2016-09-16T12:25:49.934Z,26.8
2016-09-16T12:26:06.314Z,26.7
2016-09-16T12:26:23.047Z,26.8
2016-09-16T12:26:39.682Z,26.8
2016-09-16T12:26:56.053Z,26.9
2016-09-16T12:27:12.464Z,26.9
2016-09-16T12:27:30.083Z,26.8
2016-09-16T12:27:47.447Z,26.7
2016-09-16T12:28:04.571Z,26.7
2016-09-16T12:28:30.584Z,26.8
2016-09-16T12:28:47.185Z,26.7
2016-09-16T12:29:03.332Z,26.8
2016-09-16T12:29:19.479Z,26.8
2016-09-16T12:29:35.609Z,26.7
2016-09-16T12:29:52.204Z,26.7
2016-09-16T12:30:08.932Z,26.7
2016-09-16T12:30:25.543Z,26.7
2016-09-16T12:30:42.284Z,26.8
2016-09-16T12:30:58.432Z,26.8
2016-09-16T12:31:14.803Z,26.7
2016-09-16T12:31:31.395Z,26.8
2016-09-16T12:31:47.771Z,26.7
2016-09-16T12:32:04.605Z,26.7
2016-09-16T12:32:21.279Z,26.6
2016-09-16T12:32:37.749Z,26.5
2016-09-16T12:32:54.568Z,26.5
2016-09-16T12:33:11.068Z,26.5
2016-09-16T12:33:27.688Z,26.6
2016-09-16T12:33:44.293Z,26.5
2016-09-16T12:34:01.637Z,26.5
2016-09-16T12:34:37.549Z,26.5
2016-09-16T12:34:54.552Z,26.4
2016-09-16T12:35:16.896Z,26.4
2016-09-16T12:36:55.116Z,26.3
2016-09-16T12:37:35.463Z,26.3
2016-09-16T12:50:45.502Z,27
2016-09-16T12:51:59.711Z,27
2016-09-16T12:52:23.983Z,27
2016-09-16T12:52:44.803Z,27
2016-09-16T12:53:06.318Z,27
2016-09-16T12:53:23.200Z,27
2016-09-16T12:53:39.734Z,27
2016-09-16T12:54:42.346Z,27
2016-09-16T12:54:59.498Z,27
2016-09-16T12:56:13.931Z,27
2016-09-16T12:56:31.617Z,27
2016-09-16T12:56:48.613Z,26.9
2016-09-16T12:57:06.812Z,27
2016-09-16T12:57:23.843Z,27
2016-09-16T12:57:40.927Z,27.1
2016-09-16T12:58:03.143Z,27
2016-09-16T12:58:21.911Z,27.1
2016-09-16T12:58:38.508Z,27.1
2016-09-16T12:58:55.731Z,27
2016-09-16T12:59:12.753Z,27.1
2016-09-16T12:59:29.347Z,27.1
2016-09-16T12:59:47.104Z,27.2
2016-09-16T13:00:04.812Z,27.2
2016-09-16T13:00:22.319Z,27.2
2016-09-16T13:00:39.078Z,27.2
2016-09-16T13:00:57.887Z,27.2
2016-09-16T13:01:14.709Z,27.2
2016-09-16T13:01:50.633Z,27.2
2016-09-16T13:02:16.544Z,27.2
2016-09-16T13:02:37.655Z,27.1
2016-09-16T13:04:16.580Z,27.1
2016-09-16T13:04:33.272Z,27.1
2016-09-16T13:04:50.745Z,27.1
2016-09-16T13:05:07.380Z,27
2016-09-16T13:05:29.983Z,27
2016-09-16T13:05:46.363Z,27
2016-09-16T13:06:03.976Z,27
2016-09-16T13:06:21.128Z,27
2016-09-16T13:06:37.653Z,27
2016-09-16T13:06:55.268Z,27
2016-09-16T13:07:12.059Z,27
2016-09-16T13:07:29.240Z,27
2016-09-16T13:07:46.024Z,26.9
2016-09-16T13:08:02.906Z,27
2016-09-16T13:08:20.030Z,27
2016-09-16T13:08:36.871Z,27
2016-09-16T13:09:02.898Z,27
2016-09-16T13:09:20.456Z,26.9
2016-09-16T13:09:37.688Z,26.9
2016-09-16T13:10:23.023Z,26.9
2016-09-16T13:12:01.351Z,27
2016-09-16T13:12:44.420Z,27
2016-09-16T14:02:43.708Z,26.4
2016-09-16T14:03:00.226Z,26.5
2016-09-16T14:03:16.596Z,26.5
2016-09-16T14:03:32.976Z,26.5
2016-09-16T14:03:49.110Z,26.5
2016-09-16T14:04:05.699Z,26.5
2016-09-16T14:04:22.281Z,26.5
2016-09-16T14:04:38.651Z,26.4
2016-09-16T14:04:55.376Z,26.4
2016-09-16T14:05:11.966Z,26.5
2016-09-16T14:05:28.097Z,26.4
2016-09-16T14:05:44.222Z,26.4
2016-09-16T14:06:00.581Z,26.4
2016-09-16T14:06:17.193Z,26.4
2016-09-16T14:06:33.549Z,26.4
2016-09-16T14:06:49.695Z,26.8
2016-09-16T14:07:06.296Z,27.7
2016-09-16T14:07:22.889Z,27.8
2016-09-16T14:07:39.263Z,27.7
2016-09-16T14:07:55.853Z,27.6
2016-09-16T14:08:12.437Z,27.6
2016-09-16T14:08:28.797Z,27.6
2016-09-16T14:08:44.940Z,27.5
2016-09-16T14:09:01.322Z,27.4
2016-09-16T14:09:17.832Z,27.4
2016-09-16T14:09:34.332Z,27.3
2016-09-16T14:09:50.919Z,27.3
2016-09-16T14:10:07.047Z,27.2
2016-09-16T14:10:23.770Z,27.2
2016-09-16T14:10:40.356Z,27.2
2016-09-16T14:10:56.720Z,27.2
2016-09-16T14:11:13.452Z,27.2
2016-09-16T14:11:29.955Z,27.1
2016-09-16T14:11:46.561Z,27.1
2016-09-16T14:12:03.285Z,27
2016-09-16T14:12:19.869Z,27
2016-09-16T14:12:36.465Z,27
2016-09-16T14:12:53.060Z,27
2016-09-16T14:13:09.664Z,27
2016-09-16T14:13:26.028Z,27
2016-09-16T14:13:42.528Z,26.9
2016-09-16T14:13:59.129Z,26.9
2016-09-16T14:14:15.638Z,26.9
2016-09-16T14:14:32.139Z,26.9
2016-09-16T14:14:48.273Z,26.8
2016-09-16T14:15:04.543Z,26.8
2016-09-16T14:15:20.699Z,26.8
2016-09-16T14:15:37.288Z,26.8
2016-09-16T14:15:53.654Z,26.8
2016-09-16T14:16:10.243Z,26.8
2016-09-16T14:16:26.836Z,26.8
2016-09-16T14:16:43.568Z,26.8
2016-09-16T14:17:00.180Z,26.8
2016-09-16T14:17:16.551Z,26.8
2016-09-16T14:17:32.913Z,26.8
2016-09-16T14:17:49.292Z,26.8
2016-09-16T14:18:05.883Z,26.8
2016-09-16T14:18:22.620Z,26.8
2016-09-16T14:18:38.994Z,26.8
2016-09-16T14:18:55.365Z,26.9
2016-09-16T14:19:11.736Z,26.9
2016-09-16T14:19:28.334Z,26.9
2016-09-16T14:19:44.939Z,26.9
2016-09-16T14:20:01.080Z,26.9
2016-09-16T14:20:17.221Z,26.9
2016-09-16T14:20:33.373Z,26.9
2016-09-16T14:20:49.870Z,26.9
2016-09-16T14:21:06.604Z,26.9
2016-09-16T14:21:22.742Z,26.9
2016-09-16T14:21:39.336Z,27
2016-09-16T14:21:55.829Z,27
2016-09-16T14:22:12.107Z,27
2016-09-16T14:22:28.699Z,27
2016-09-16T14:22:45.309Z,27
2016-09-16T14:23:01.691Z,27
2016-09-16T14:23:18.285Z,27
2016-09-16T14:23:34.888Z,27
2016-09-16T14:23:51.257Z,27.1
2016-09-16T14:24:07.844Z,27.1
2016-09-16T14:24:24.444Z,27.1
2016-09-16T14:24:40.805Z,27.1
2016-09-16T14:24:57.188Z,27.1
2016-09-16T14:25:13.788Z,27
2016-09-16T14:25:30.155Z,27
2016-09-16T14:25:46.511Z,27
2016-09-16T14:26:03.007Z,27
2016-09-16T14:26:19.596Z,27
2016-09-16T14:26:36.330Z,27
2016-09-16T14:26:52.702Z,27
2016-09-16T14:27:09.281Z,27
2016-09-16T14:27:25.647Z,27
2016-09-16T14:27:42.393Z,27
2016-09-16T14:27:58.987Z,27
2016-09-16T14:28:15.587Z,27
2016-09-16T14:28:32.306Z,27
2016-09-16T14:28:48.455Z,27
2016-09-16T14:29:04.593Z,26.9
2016-09-16T14:29:20.880Z,26.9
2016-09-16T14:29:37.456Z,26.9
2016-09-16T14:29:54.048Z,26.9
2016-09-16T14:30:10.645Z,26.9
2016-09-16T14:30:26.924Z,26.9
2016-09-16T14:30:43.488Z,26.9
2016-09-16T14:30:59.624Z,26.9
2016-09-16T14:31:16.220Z,26.9
2016-09-16T14:31:32.825Z,26.9
2016-09-16T14:31:49.211Z,26.9
2016-09-16T14:32:05.572Z,26.9
2016-09-16T14:32:22.298Z,26.9
2016-09-16T14:32:38.894Z,26.8
2016-09-16T14:32:55.263Z,26.8
2016-09-16T14:33:11.859Z,26.8
2016-09-16T14:33:28.365Z,26.8
2016-09-16T14:33:44.971Z,26.7
2016-09-16T14:34:01.327Z,26.7
2016-09-16T14:34:17.692Z,26.7
2016-09-16T14:34:34.281Z,26.6
2016-09-16T14:34:50.653Z,26.7
2016-09-16T14:35:06.787Z,26.6
2016-09-16T14:35:23.147Z,26.6
2016-09-16T14:35:39.739Z,26.6
2016-09-16T14:35:56.338Z,26.6
2016-09-16T14:36:13.062Z,26.6
2016-09-16T14:36:29.439Z,26.6
2016-09-16T14:36:46.027Z,26.6
2016-09-16T14:37:02.757Z,26.6
2016-09-16T14:37:18.906Z,26.6
2016-09-16T14:37:35.637Z,26.6
2016-09-16T14:37:52.010Z,26.6
2016-09-16T14:38:08.600Z,26.6
2016-09-16T14:38:25.193Z,26.6
2016-09-16T14:38:41.793Z,26.6
2016-09-16T14:38:58.160Z,26.6
2016-09-16T14:39:14.752Z,26.5
2016-09-16T14:39:31.119Z,26.5
2016-09-16T14:39:47.482Z,26.5
2016-09-16T14:40:04.085Z,26.5
2016-09-16T14:40:20.585Z,26.5
2016-09-16T14:40:36.942Z,26.5
2016-09-16T14:40:53.568Z,26.5
2016-09-16T14:41:10.124Z,26.5
2016-09-16T14:41:26.494Z,26.5
2016-09-16T14:41:43.089Z,26.5
2016-09-16T14:41:59.450Z,26.5
2016-09-16T14:42:16.039Z,26.5
2016-09-16T14:42:32.399Z,26.4
2016-09-16T14:42:48.985Z,26.4
2016-09-16T14:43:05.590Z,26.4
2016-09-16T14:43:22.192Z,26.4
2016-09-16T14:43:38.574Z,26.4
2016-09-16T14:43:55.167Z,26.4
2016-09-16T14:44:11.537Z,26.4
2016-09-16T14:44:28.256Z,26.4
2016-09-16T14:44:44.842Z,26.4
2016-09-16T14:45:01.444Z,26.4
2016-09-16T14:45:18.036Z,26.4
2016-09-16T14:45:34.756Z,26.4
2016-09-16T14:45:51.022Z,26.3
2016-09-16T14:46:07.609Z,26.3
2016-09-16T14:46:24.342Z,26.3
2016-09-16T14:46:40.932Z,26.3
2016-09-16T14:46:57.521Z,26.3
2016-09-16T14:47:14.111Z,26.3
2016-09-16T14:47:30.465Z,26.4
2016-09-16T14:47:47.058Z,26.3
2016-09-16T14:48:03.656Z,26.3
2016-09-16T14:48:20.377Z,26.3
2016-09-16T14:48:36.891Z,26.3
2016-09-16T14:48:53.031Z,26.3
2016-09-16T14:49:09.406Z,26.3
2016-09-16T14:49:26.011Z,26.3
2016-09-16T14:49:42.379Z,26.3
2016-09-16T14:49:58.756Z,26.3
2016-09-16T14:50:15.356Z,26.3
2016-09-16T14:50:31.726Z,26.3
2016-09-16T14:50:48.320Z,26.3
2016-09-16T14:51:04.687Z,26.3
2016-09-16T14:51:20.830Z,26.3
2016-09-16T14:51:37.424Z,26.3
2016-09-16T14:51:54.034Z,26.3
2016-09-16T14:52:10.641Z,26.2
2016-09-16T14:52:27.022Z,26.2
2016-09-16T14:52:43.390Z,26.2
2016-09-16T14:52:59.987Z,26.2
2016-09-16T14:53:16.577Z,26.2
2016-09-16T14:53:32.962Z,26.3
2016-09-16T14:53:49.329Z,26.3
2016-09-16T14:54:05.705Z,26.3
2016-09-16T14:54:22.447Z,26.3
2016-09-16T14:54:38.821Z,26.3
2016-09-16T14:54:55.097Z,26.3
2016-09-16T14:55:11.456Z,26.3
2016-09-16T14:55:28.060Z,26.3
2016-09-16T14:55:44.432Z,26.3
2016-09-16T14:56:01.019Z,26.3
2016-09-16T14:56:17.608Z,26.3
2016-09-16T14:56:34.128Z,26.3
2016-09-16T14:56:50.720Z,26.3
2016-09-16T14:57:06.877Z,26.3
2016-09-16T14:57:23.478Z,26.3
2016-09-16T14:57:40.070Z,26.3
2016-09-16T14:57:56.676Z,26.3
2016-09-16T14:58:13.047Z,26.3
2016-09-16T14:58:29.185Z,26.3
2016-09-16T14:58:45.321Z,26.3
2016-09-16T14:59:01.459Z,26.2
2016-09-16T14:59:17.948Z,26.2
2016-09-16T14:59:34.567Z,26.2
2016-09-16T14:59:50.938Z,26.2
2016-09-16T15:00:07.078Z,26.2
2016-09-16T15:00:23.666Z,26.2
2016-09-16T15:00:40.253Z,26.2
2016-09-16T15:00:56.848Z,26.2
2016-09-16T15:01:13.216Z,26.2
2016-09-16T15:01:29.583Z,26.2
2016-09-16T15:01:45.716Z,26.2
2016-09-16T15:02:02.321Z,26.2
2016-09-16T15:02:18.690Z,26.2
2016-09-16T15:02:35.072Z,26.2
2016-09-16T15:02:51.673Z,26.2
2016-09-16T15:03:08.290Z,26.2
2016-09-16T15:03:24.652Z,26.2
2016-09-16T15:03:41.231Z,26.2
2016-09-16T15:03:57.612Z,26.2
2016-09-16T15:04:14.215Z,26.2
2016-09-16T15:04:30.804Z,26.3
2016-09-16T15:04:47.160Z,26.3
2016-09-16T15:05:03.302Z,26.3
2016-09-16T15:05:19.667Z,26.3
2016-09-16T15:05:36.031Z,26.3
2016-09-16T15:05:52.395Z,26.3
2016-09-16T15:06:08.992Z,26.3
2016-09-16T15:06:25.578Z,26.3
2016-09-16T15:06:41.964Z,26.3
2016-09-16T15:06:58.473Z,26.3
2016-09-16T15:07:14.841Z,26.3
2016-09-16T15:07:31.222Z,26.3
2016-09-16T15:07:47.361Z,26.4
2016-09-16T15:08:03.735Z,26.4
2016-09-16T15:08:20.103Z,26.4
2016-09-16T15:08:36.706Z,26.4
2016-09-16T15:08:52.842Z,26.4
2016-09-16T15:09:09.221Z,26.4
2016-09-16T15:09:25.815Z,26.4
2016-09-16T15:09:42.415Z,26.4
2016-09-16T15:09:58.782Z,26.4
2016-09-16T15:10:15.146Z,26.4
2016-09-16T15:10:31.879Z,26.4
2016-09-16T15:10:48.247Z,26.4
2016-09-16T15:11:04.855Z,26.4
2016-09-16T15:11:21.140Z,26.4
2016-09-16T15:11:37.734Z,26.4
2016-09-16T15:11:54.459Z,26.4
2016-09-16T15:12:10.814Z,26.4
2016-09-16T15:12:27.111Z,26.4
2016-09-16T15:12:43.484Z,26.4
2016-09-16T15:12:59.853Z,26.4
2016-09-16T15:13:16.211Z,26.3
2016-09-16T15:13:32.354Z,26.3
2016-09-16T15:13:48.718Z,26.3
2016-09-16T15:14:05.081Z,26.3
2016-09-16T15:14:21.436Z,26.3
2016-09-16T15:14:38.031Z,26.3
2016-09-16T15:14:54.170Z,26.3
2016-09-16T15:15:10.528Z,26.3
2016-09-16T15:15:26.798Z,26.2
2016-09-16T15:15:43.157Z,26.2
2016-09-16T15:15:59.527Z,26.2
2016-09-16T15:16:16.128Z,26.2
2016-09-16T15:16:32.275Z,26.2
2016-09-16T15:16:48.424Z,26.2
2016-09-16T15:17:05.020Z,26.2
2016-09-16T15:17:21.513Z,26.2
2016-09-16T15:17:38.105Z,26.2
2016-09-16T15:17:54.620Z,26.2
2016-09-16T15:18:10.767Z,26.2
2016-09-16T15:18:26.899Z,26.2
2016-09-16T15:18:43.506Z,26.2
2016-09-16T15:19:00.000Z,26.2
2016-09-16T15:19:16.362Z,26.2
2016-09-16T15:19:32.730Z,26.2
2016-09-16T15:19:49.192Z,26.2
2016-09-16T15:20:05.330Z,26.2
2016-09-16T15:20:21.836Z,26.2
2016-09-16T15:20:37.983Z,26.2
2016-09-16T15:20:54.495Z,26.2
2016-09-16T15:21:10.988Z,26.2
2016-09-16T15:21:27.347Z,26.3
2016-09-16T15:21:43.945Z,26.3
2016-09-16T15:22:00.324Z,26.2
2016-09-16T15:22:16.463Z,26.2
2016-09-16T15:22:33.158Z,26.2
2016-09-16T15:22:49.888Z,26.2
2016-09-16T15:23:06.477Z,26.2
2016-09-16T15:23:22.624Z,26.2
2016-09-16T15:23:39.224Z,26.2
2016-09-16T15:23:55.887Z,26.2
2016-09-16T15:24:12.166Z,26.2
2016-09-16T15:24:28.541Z,26.2
2016-09-16T15:24:44.680Z,26.2
2016-09-16T15:25:01.614Z,26.2
2016-09-16T15:25:18.227Z,26.2
2016-09-16T15:25:34.832Z,26.2
2016-09-16T15:25:51.206Z,26.2
2016-09-16T15:26:07.932Z,26.1
2016-09-16T15:26:24.655Z,26.1
2016-09-16T15:26:41.021Z,26.2
2016-09-16T15:26:57.749Z,26.2
2016-09-16T15:27:14.353Z,26.2
2016-09-16T15:27:30.950Z,26.2
2016-09-16T15:27:47.676Z,26.2
2016-09-16T15:28:04.289Z,26.2
2016-09-16T15:28:20.666Z,26.2
2016-09-16T15:28:37.277Z,26.2
2016-09-16T15:28:53.648Z,26.1
2016-09-16T15:29:10.251Z,26.2
2016-09-16T15:29:26.978Z,26.1
2016-09-16T15:29:43.479Z,26.1
2016-09-16T15:30:00.087Z,26.1
2016-09-16T15:30:16.684Z,26.1
2016-09-16T15:30:32.631Z,26.1
2016-09-16T15:30:49.225Z,26.1
2016-09-16T15:31:05.832Z,26.1
2016-09-16T15:31:22.429Z,26.1
2016-09-16T15:31:38.797Z,26.1
2016-09-16T15:31:55.175Z,26.1
2016-09-16T15:32:11.448Z,26.1
2016-09-16T15:32:27.920Z,26.1
2016-09-16T15:32:44.545Z,26.1
2016-09-16T15:33:00.970Z,26.1
2016-09-16T15:33:17.518Z,26.1
2016-09-16T15:33:33.922Z,26.1
2016-09-16T15:33:50.305Z,26.1
2016-09-16T15:34:06.667Z,26.1
2016-09-16T15:34:23.270Z,26.1
2016-09-16T15:34:40.194Z,26.1
2016-09-16T15:34:56.806Z,26.1
2016-09-16T15:35:13.171Z,26
2016-09-16T15:35:29.775Z,26
2016-09-16T15:35:45.914Z,26
2016-09-16T15:36:02.300Z,26
2016-09-16T15:36:19.027Z,26
2016-09-16T15:36:35.623Z,26
2016-09-16T15:36:52.227Z,26
2016-09-16T15:37:08.944Z,26
2016-09-16T15:37:25.543Z,26
2016-09-16T15:37:42.132Z,26
2016-09-16T15:37:58.868Z,26
2016-09-16T15:38:15.236Z,26
2016-09-16T15:38:31.977Z,26
2016-09-16T15:38:48.569Z,26
2016-09-16T15:39:04.950Z,26
2016-09-16T15:39:21.549Z,26
2016-09-16T15:39:38.141Z,26
2016-09-16T15:39:54.878Z,26
2016-09-16T15:40:11.100Z,26
2016-09-16T15:40:27.386Z,26
2016-09-16T15:40:43.987Z,25.9
2016-09-16T15:41:00.369Z,25.9
2016-09-16T15:41:16.869Z,25.9
2016-09-16T15:41:33.470Z,25.9
2016-09-16T15:41:49.852Z,25.9
2016-09-16T15:42:06.461Z,25.9
2016-09-16T15:42:23.070Z,25.9
2016-09-16T15:42:39.206Z,25.9
2016-09-16T15:42:55.361Z,25.9
2016-09-16T15:43:11.738Z,25.9
2016-09-16T15:43:28.331Z,25.9
2016-09-16T15:43:44.884Z,25.9
2016-09-16T15:44:01.270Z,25.9
2016-09-16T15:44:17.878Z,25.9
2016-09-16T15:44:34.467Z,25.9
2016-09-16T15:44:50.849Z,25.9
2016-09-16T15:45:07.447Z,25.8
2016-09-16T15:45:23.814Z,25.8
2016-09-16T15:45:40.179Z,25.8
2016-09-16T15:45:56.783Z,25.8
2016-09-16T15:46:13.390Z,25.8
2016-09-16T15:46:29.990Z,25.8
2016-09-16T15:46:46.593Z,25.8
2016-09-16T15:47:03.187Z,25.8
2016-09-16T15:47:19.892Z,25.8
2016-09-16T15:47:36.402Z,25.8
2016-09-16T15:47:53.136Z,25.8
2016-09-16T15:48:09.731Z,25.8
2016-09-16T15:48:26.096Z,25.8
2016-09-16T15:48:42.702Z,25.8
2016-09-16T15:48:59.305Z,25.8
2016-09-16T15:49:15.667Z,25.8
2016-09-16T15:49:31.815Z,25.8
2016-09-16T15:49:48.192Z,25.8
2016-09-16T15:50:04.574Z,25.8
2016-09-16T15:50:21.173Z,25.8
2016-09-16T15:50:37.767Z,25.7
2016-09-16T15:50:54.370Z,25.7
2016-09-16T15:51:10.976Z,25.7
2016-09-16T15:51:27.575Z,25.7
2016-09-16T15:51:44.191Z,25.7
2016-09-16T15:52:00.336Z,25.7
2016-09-16T15:52:16.938Z,25.7
2016-09-16T15:52:33.539Z,25.7
2016-09-16T15:52:50.130Z,25.7
2016-09-16T15:53:06.489Z,25.7
2016-09-16T15:53:23.095Z,25.7
2016-09-16T15:53:39.484Z,25.7
2016-09-16T15:53:55.871Z,25.7
2016-09-16T15:54:12.012Z,25.7
2016-09-16T15:54:28.612Z,25.7
2016-09-16T15:54:44.980Z,25.7
2016-09-16T15:55:01.356Z,25.7
2016-09-16T15:55:17.952Z,25.7
2016-09-16T15:55:34.708Z,25.7
2016-09-16T15:55:51.300Z,25.7
2016-09-16T15:56:07.452Z,25.7
2016-09-16T15:56:23.602Z,25.7
2016-09-16T15:56:39.866Z,25.7
2016-09-16T15:56:56.456Z,25.7
2016-09-16T15:57:13.047Z,25.7
2016-09-16T15:57:29.644Z,25.7
2016-09-16T15:57:46.254Z,25.7
2016-09-16T15:58:02.864Z,25.7
2016-09-16T15:58:19.469Z,25.7
2016-09-16T15:58:35.382Z,25.6
2016-09-16T15:58:51.757Z,25.6
2016-09-16T15:59:08.354Z,25.6
2016-09-16T15:59:24.958Z,25.6
2016-09-16T15:59:41.549Z,25.6
2016-09-16T15:59:57.912Z,25.6
2016-09-16T16:00:14.508Z,25.6
2016-09-16T16:00:31.104Z,25.6
2016-09-16T16:00:47.705Z,25.6
2016-09-16T16:01:04.302Z,25.6
2016-09-16T16:01:21.174Z,25.6
2016-09-16T16:01:37.790Z,25.6
2016-09-16T16:01:54.169Z,25.6
2016-09-16T16:02:10.783Z,25.6
2016-09-16T16:02:27.151Z,25.6
2016-09-16T16:02:43.528Z,25.6
2016-09-16T16:03:00.035Z,25.6
2016-09-16T16:03:16.409Z,25.6
2016-09-16T16:03:33.134Z,25.6
2016-09-16T16:03:49.749Z,25.6
2016-09-16T16:04:06.358Z,25.6
2016-09-16T16:04:23.080Z,25.6
2016-09-16T16:04:39.594Z,25.6
2016-09-16T16:04:55.964Z,25.6
2016-09-16T16:05:12.343Z,25.5
2016-09-16T16:05:28.483Z,25.5
2016-09-16T16:05:44.611Z,25.5
2016-09-16T16:06:00.999Z,25.5
2016-09-16T16:06:17.593Z,25.5
2016-09-16T16:06:34.192Z,25.5
2016-09-16T16:06:50.791Z,25.5
2016-09-16T16:07:07.383Z,25.5
2016-09-16T16:07:23.753Z,25.5
2016-09-16T16:07:40.490Z,25.5
2016-09-16T16:07:56.641Z,25.5
2016-09-16T16:08:12.977Z,25.5
2016-09-16T16:08:29.355Z,25.5
2016-09-16T16:08:45.949Z,25.5
2016-09-16T16:09:02.338Z,25.5
2016-09-16T16:09:18.914Z,25.5
2016-09-16T16:09:35.537Z,25.5
2016-09-16T16:09:52.131Z,25.5
2016-09-16T16:10:08.723Z,25.5
2016-09-16T16:10:25.094Z,25.5
2016-09-16T16:10:41.454Z,25.5
2016-09-16T16:10:57.818Z,25.5
2016-09-16T16:11:14.543Z,25.5
2016-09-16T16:11:30.918Z,25.5
2016-09-16T16:11:47.284Z,25.5
2016-09-16T16:12:03.885Z,25.5
2016-09-16T16:12:20.491Z,25.4
2016-09-16T16:12:36.649Z,25.4
2016-09-16T16:12:52.784Z,25.4
2016-09-16T16:13:09.145Z,25.4
2016-09-16T16:13:25.298Z,25.4
2016-09-16T16:13:41.684Z,25.4
2016-09-16T16:13:58.281Z,25.4
2016-09-16T16:14:14.883Z,25.4
2016-09-16T16:14:31.273Z,25.4
2016-09-16T16:14:48.007Z,25.4
2016-09-16T16:15:04.616Z,25.4
2016-09-16T16:15:21.117Z,25.4
2016-09-16T16:15:37.713Z,25.4
2016-09-16T16:15:54.307Z,25.4
2016-09-16T16:16:10.679Z,25.4
2016-09-16T16:16:27.050Z,25.4
2016-09-16T16:16:43.553Z,25.4
2016-09-16T16:17:00.160Z,25.4
2016-09-16T16:17:16.523Z,25.4
2016-09-16T16:17:33.113Z,25.4
2016-09-16T16:17:49.724Z,25.4
2016-09-16T16:18:06.009Z,25.4
2016-09-16T16:18:22.788Z,25.4
2016-09-16T16:18:39.383Z,25.4
2016-09-16T16:18:55.740Z,25.4
2016-09-16T16:19:12.095Z,25.4
2016-09-16T16:19:28.471Z,25.4
2016-09-16T16:19:44.394Z,25.4
2016-09-16T16:20:00.892Z,25.4
2016-09-16T16:20:17.261Z,25.4
2016-09-16T16:20:33.638Z,25.4
2016-09-16T16:20:49.781Z,25.4
2016-09-16T16:21:06.392Z,25.4
2016-09-16T16:21:22.758Z,25.4
2016-09-16T16:21:39.352Z,25.4
2016-09-16T16:21:55.498Z,25.4
2016-09-16T16:22:12.684Z,25.4
2016-09-16T16:22:29.050Z,25.4
2016-09-16T16:22:45.791Z,25.4
2016-09-16T16:23:02.398Z,25.4
2016-09-16T16:23:18.756Z,25.4
2016-09-16T16:23:35.348Z,25.4
2016-09-16T16:23:51.946Z,25.4
2016-09-16T16:24:08.315Z,25.4
2016-09-16T16:24:24.916Z,25.4
2016-09-16T16:24:41.512Z,25.4
2016-09-16T16:24:58.023Z,25.4
2016-09-16T16:25:14.393Z,25.4
2016-09-16T16:25:30.997Z,25.4
2016-09-16T16:25:47.619Z,25.4
2016-09-16T16:26:03.759Z,25.4
2016-09-16T16:26:20.127Z,25.4
2016-09-16T16:26:36.724Z,25.4
2016-09-16T16:26:53.322Z,25.4
2016-09-16T16:27:09.708Z,25.4
2016-09-16T16:27:26.079Z,25.4
2016-09-16T16:27:42.693Z,25.4
2016-09-16T16:27:59.070Z,25.4
2016-09-16T16:28:15.453Z,25.4
2016-09-16T16:28:31.836Z,25.4
2016-09-16T16:28:48.209Z,25.4
2016-09-16T16:29:04.810Z,25.4
2016-09-16T16:29:21.174Z,25.4
2016-09-16T16:29:37.563Z,25.4
2016-09-16T16:29:54.145Z,25.4
2016-09-16T16:30:10.538Z,25.4
2016-09-16T16:30:26.676Z,25.4
2016-09-16T16:30:43.054Z,25.4
2016-09-16T16:30:59.677Z,25.4
2016-09-16T16:31:16.042Z,25.4
2016-09-16T16:31:32.103Z,25.4
2016-09-16T16:31:48.473Z,25.4
2016-09-16T16:32:05.210Z,25.4
2016-09-16T16:32:21.823Z,25.4
2016-09-16T16:32:38.332Z,25.4
2016-09-16T16:32:55.071Z,25.4
2016-09-16T16:33:11.656Z,25.4
2016-09-16T16:33:28.250Z,25.4
2016-09-16T16:33:44.850Z,25.4
2016-09-16T16:34:01.136Z,25.4
2016-09-16T16:34:17.277Z,25.4
2016-09-16T16:34:33.883Z,25.4
2016-09-16T16:34:50.250Z,25.4
2016-09-16T16:35:06.987Z,25.4
2016-09-16T16:35:23.580Z,25.4